Time;durP1;ratioP1;P1;durP2;ratioP2;P2;SDS_P1;SDS_P2;PMS_P1;PMS_P2;Temp;Humidity;BMP_temperature;BMP_pressure;BME280_temperature;BME280_humidity;BME280_pressure;Samples;Min_cycle;Max_cycle;Signal;HPM_P1;HPM_P2
2023/05/05 00:01:35;;;;;;;16.85;9.80;;;;;;;10.56;49.64;98920.09;5113588;28;20080;-79
2023/05/05 00:04:00;;;;;;;17.48;9.95;;;;;;;10.56;50.12;98930.22;5112850;28;20439;-79
2023/05/05 00:06:27;;;;;;;18.73;10.32;;;;;;;10.53;49.93;98930.81;5113500;28;20055;-79
2023/05/05 00:08:53;;;;;;;18.02;10.68;;;;;;;10.51;49.94;98931.09;5095660;28;20024;-79
2023/05/05 00:11:18;;;;;;;17.70;10.30;;;;;;;10.51;49.32;98922.03;5095109;28;20089;-79
2023/05/05 00:13:44;;;;;;;17.73;10.63;;;;;;;10.48;49.74;98928.94;5113077;28;20059;-79
2023/05/05 00:16:09;;;;;;;16.13;9.88;;;;;;;10.47;49.32;98929.19;5113159;28;20038;-79
2023/05/05 00:18:34;;;;;;;17.00;9.32;;;;;;;10.44;50.21;98927.84;5112886;28;20046;-79
2023/05/05 00:21:00;;;;;;;17.05;9.85;;;;;;;10.41;50.20;98920.19;5094906;28;20051;-79
2023/05/05 00:23:26;;;;;;;16.63;9.50;;;;;;;10.39;49.64;98923.19;5113016;28;20055;-79
2023/05/05 00:25:51;;;;;;;16.65;10.00;;;;;;;10.36;50.15;98928.41;5112963;28;20085;-79
2023/05/05 00:28:16;;;;;;;16.25;10.05;;;;;;;10.34;50.44;98930.63;5113036;28;20024;-78
2023/05/05 00:30:42;;;;;;;15.93;9.93;;;;;;;10.32;50.52;98927.34;5094657;28;20076;-79
2023/05/05 00:33:07;;;;;;;15.85;10.02;;;;;;;10.31;50.60;98917.47;5113283;28;20027;-79
2023/05/05 00:35:33;;;;;;;17.33;10.13;;;;;;;10.28;50.57;98910.66;5112474;28;20081;-78
2023/05/05 00:37:58;;;;;;;17.08;10.93;;;;;;;10.27;50.14;98906.25;5112885;28;20097;-79
2023/05/05 00:40:24;;;;;;;18.15;10.95;;;;;;;10.25;50.30;98905.72;5112907;28;20102;-79
2023/05/05 00:42:50;;;;;;;19.38;11.57;;;;;;;10.24;50.40;98910.38;5112872;28;20020;-78
2023/05/05 00:45:17;;;;;;;17.50;11.23;;;;;;;10.23;50.63;98908.72;5112626;28;20381;-78
2023/05/05 00:47:45;;;;;;;19.27;11.65;;;;;;;10.20;50.19;98903.81;5112669;28;20024;-79
2023/05/05 00:50:24;;;;;;;18.77;11.80;;;;;;;10.20;51.04;98897.53;5049010;28;20022;-79
2023/05/05 00:52:52;;;;;;;18.80;11.87;;;;;;;10.17;50.65;98898.94;4992102;28;20377;-79
2023/05/05 00:55:18;;;;;;;18.52;11.82;;;;;;;10.16;51.16;98897.28;5009562;28;20018;-78
2023/05/05 00:57:44;;;;;;;19.65;12.10;;;;;;;10.12;51.24;98897.00;5009573;28;20041;-79
2023/05/05 01:00:10;;;;;;;18.20;11.55;;;;;;;10.09;50.89;98896.78;5062239;28;20500;-79
2023/05/05 01:02:35;;;;;;;20.60;11.52;;;;;;;10.06;50.68;98891.84;5112619;28;20032;-79
2023/05/05 01:05:02;;;;;;;17.35;11.15;;;;;;;10.00;51.29;98888.28;5063830;28;20049;-79
2023/05/05 01:07:47;;;;;;;16.88;11.05;;;;;;;9.95;50.80;98891.91;5009369;28;20107;-78
2023/05/05 01:10:12;;;;;;;15.70;10.55;;;;;;;9.95;51.43;98891.09;5012992;28;20057;-78
2023/05/05 01:12:52;;;;;;;18.08;11.25;;;;;;;9.93;51.71;98885.06;5013185;28;20495;-80
2023/05/05 01:15:29;;;;;;;15.25;10.82;;;;;;;9.92;51.22;98883.44;5012883;28;20026;-78
2023/05/05 01:18:05;;;;;;;18.30;11.15;;;;;;;9.89;51.20;98887.53;5085645;28;20537;-79
2023/05/05 01:21:19;;;;;;;16.85;10.60;;;;;;;9.90;51.83;98891.13;5116470;28;20031;-78
2023/05/05 01:24:05;;;;;;;16.15;10.65;;;;;;;9.90;51.22;98889.19;5053590;28;20032;-78
2023/05/05 01:26:46;;;;;;;16.85;10.90;;;;;;;9.90;51.61;98891.13;5111952;28;20400;-78
2023/05/05 01:29:41;;;;;;;19.10;11.57;;;;;;;9.87;52.26;98895.22;5010099;28;20026;-77
2023/05/05 01:32:13;;;;;;;19.77;11.18;;;;;;;9.86;51.38;98893.56;5020052;28;20033;-78
2023/05/05 01:35:00;;;;;;;19.75;12.25;;;;;;;9.85;52.16;98900.16;5116434;28;20061;-78
2023/05/05 01:37:51;;;;;;;18.58;11.75;;;;;;;9.85;51.43;98897.41;5116258;28;20115;-78
2023/05/05 01:40:23;;;;;;;18.48;12.10;;;;;;;9.85;51.90;98899.34;5116359;28;20099;-78
2023/05/05 01:42:50;;;;;;;20.90;12.30;;;;;;;9.84;52.01;98904.00;5116231;28;20456;-78
2023/05/05 01:45:19;;;;;;;21.88;12.65;;;;;;;9.82;51.94;98900.72;5116413;28;20030;-78
2023/05/05 01:47:46;;;;;;;20.30;12.40;;;;;;;9.80;52.61;98898.28;5116065;28;20073;-78
2023/05/05 01:50:13;;;;;;;18.77;11.50;;;;;;;9.81;52.40;98888.13;5115672;28;20031;-78
2023/05/05 01:52:41;;;;;;;18.95;11.15;;;;;;;9.80;52.04;98884.56;5116093;28;20031;-79
2023/05/05 01:55:08;;;;;;;18.23;11.30;;;;;;;9.79;52.69;98885.66;5116194;28;20055;-79
2023/05/05 01:57:36;;;;;;;17.83;11.00;;;;;;;9.77;51.92;98885.13;5117659;28;20077;-79
2023/05/05 02:00:03;;;;;;;19.55;11.73;;;;;;;9.77;52.31;98890.59;5117658;28;20030;-79
2023/05/05 02:02:31;;;;;;;16.90;11.85;;;;;;;9.76;52.18;98872.53;5117405;28;20022;-78
2023/05/05 02:04:58;;;;;;;18.80;11.38;;;;;;;9.74;52.59;98880.22;5116046;28;20557;-78
2023/05/05 02:07:25;;;;;;;20.40;12.07;;;;;;;9.73;52.78;98866.81;5115542;28;20073;-78
2023/05/05 02:09:51;;;;;;;24.83;13.05;;;;;;;9.73;52.27;98870.34;5115789;28;20028;-78
2023/05/05 02:12:18;;;;;;;23.15;12.10;;;;;;;9.72;52.48;98873.38;5115398;28;20023;-78
2023/05/05 02:14:45;;;;;;;22.95;12.60;;;;;;;9.72;52.69;98870.66;5115451;28;20038;-75
2023/05/05 02:17:12;;;;;;;23.95;12.35;;;;;;;9.72;53.10;98876.94;5115346;28;20035;-75
2023/05/05 02:19:40;;;;;;;23.58;12.98;;;;;;;9.73;52.82;98877.75;5113853;28;20132;-76
2023/05/05 02:22:06;;;;;;;23.60;12.52;;;;;;;9.71;52.55;98883.50;5097096;28;20027;-75
2023/05/05 02:24:31;;;;;;;22.63;12.40;;;;;;;9.70;52.86;98873.66;5115188;28;20036;-81
2023/05/05 02:27:01;;;;;;;24.17;12.95;;;;;;;9.68;52.62;98890.38;5115456;28;20065;-79
2023/05/05 02:29:46;;;;;;;22.10;12.10;;;;;;;9.65;52.53;98881.88;5115338;28;20076;-78
2023/05/05 02:32:26;;;;;;;17.98;10.55;;;;;;;9.63;52.77;98889.56;5115278;28;20274;-81
2023/05/05 02:34:53;;;;;;;;;;;;;;;9.61;52.68;98887.13;5115626;28;20039;-80
2023/05/05 02:37:22;;;;;;;18.15;9.68;;;;;;;9.59;52.81;98888.47;5115044;28;20383;-81
2023/05/05 02:39:59;;;;;;;15.13;10.27;;;;;;;9.55;53.16;98888.22;5114907;28;20035;-79
2023/05/05 02:42:28;;;;;;;13.25;9.35;;;;;;;9.55;52.75;98892.91;5096696;28;20053;-80
2023/05/05 02:44:58;;;;;;;15.75;10.43;;;;;;;9.53;52.98;98888.50;5096854;28;20122;-80
2023/05/05 02:47:32;;;;;;;20.42;10.48;;;;;;;9.52;52.89;98892.34;5114831;28;20381;-81
2023/05/05 02:49:58;;;;;;;16.27;10.32;;;;;;;9.49;52.84;98886.59;5114912;28;20499;-80
2023/05/05 02:52:24;;;;;;;17.23;11.23;;;;;;;9.45;53.09;98889.09;5114678;28;20023;-81
2023/05/05 02:54:49;;;;;;;18.80;12.00;;;;;;;9.46;52.65;98889.88;5114945;28;20036;-80
2023/05/05 02:57:17;;;;;;;17.83;11.75;;;;;;;9.43;53.43;98899.50;5114435;28;20031;-81
2023/05/05 02:59:51;;;;;;;21.60;11.68;;;;;;;9.38;52.91;98894.81;5114755;28;20024;-80
2023/05/05 03:02:23;;;;;;;20.55;12.30;;;;;;;9.36;52.71;98896.22;5114806;28;20024;-81
2023/05/05 03:05:15;;;;;;;18.50;12.73;;;;;;;9.32;53.19;98895.13;5114466;28;20044;-81
2023/05/05 03:08:02;;;;;;;22.40;12.95;;;;;;;9.28;53.05;98894.88;5114583;28;20477;-81
2023/05/05 03:10:51;;;;;;;19.85;12.38;;;;;;;9.23;53.63;98895.69;5114677;28;20466;-80
2023/05/05 03:13:21;;;;;;;22.95;12.98;;;;;;;9.22;53.28;98896.78;5114321;28;20051;-80
2023/05/05 03:15:50;;;;;;;21.35;11.90;;;;;;;9.20;53.32;98895.44;5114399;28;20098;-81
2023/05/05 03:18:17;;;;;;;22.08;12.25;;;;;;;9.19;53.76;98900.06;5114316;28;20034;-81
2023/05/05 03:20:42;;;;;;;16.55;10.98;;;;;;;9.18;53.86;98898.44;5114296;28;20027;-80
2023/05/05 03:23:08;;;;;;;19.42;10.98;;;;;;;9.19;53.67;98897.34;5114479;28;20016;-81
2023/05/05 03:25:44;;;;;;;20.70;11.80;;;;;;;9.19;54.07;98891.06;5114337;28;20042;-81
2023/05/05 03:28:09;;;;;;;24.52;12.63;;;;;;;9.19;53.48;98889.13;5114205;28;20019;-80
2023/05/05 03:30:35;;;;;;;26.63;13.80;;;;;;;9.18;53.65;98892.94;5113377;28;20476;-80
2023/05/05 03:33:00;;;;;;;26.63;14.95;;;;;;;9.18;53.61;98887.47;5114155;28;20481;-80
2023/05/05 03:35:25;;;;;;;25.60;14.27;;;;;;;9.17;54.15;98899.53;5113979;28;20023;-80
2023/05/05 03:37:51;;;;;;;22.08;13.15;;;;;;;9.16;54.36;98897.91;5114092;28;20369;-80
2023/05/05 03:40:16;;;;;;;21.50;12.88;;;;;;;9.17;53.94;98895.97;5114189;28;20031;-81
2023/05/05 03:42:42;;;;;;;19.10;12.65;;;;;;;9.17;53.76;98901.44;5095609;28;20019;-81
2023/05/05 03:45:07;;;;;;;23.20;13.55;;;;;;;9.16;54.57;98900.66;5113867;28;20073;-80
2023/05/05 03:47:33;;;;;;;22.35;13.07;;;;;;;9.17;54.08;98898.72;5113986;28;20055;-81
2023/05/05 03:49:59;;;;;;;19.75;13.38;;;;;;;9.15;54.14;98885.31;5114027;28;20032;-81
2023/05/05 03:52:25;;;;;;;24.85;13.35;;;;;;;9.17;54.16;98888.56;5113597;28;20028;-78
2023/05/05 03:54:50;;;;;;;21.85;13.73;;;;;;;9.16;54.45;98891.59;5113879;28;20412;-77
2023/05/05 03:57:16;;;;;;;23.25;13.65;;;;;;;9.16;54.22;98884.22;5113607;28;20552;-78
2023/05/05 03:59:41;;;;;;;22.38;14.20;;;;;;;9.16;54.21;98881.50;5113990;28;20024;-77
2023/05/05 04:02:07;;;;;;;22.25;14.35;;;;;;;9.17;54.91;98890.50;5113501;28;20077;-78
2023/05/05 04:04:32;;;;;;;22.45;13.63;;;;;;;9.18;54.63;98892.94;5113288;28;20135;-81
2023/05/05 04:06:58;;;;;;;23.23;14.73;;;;;;;9.18;54.94;98892.94;5113434;28;20031;-80
2023/05/05 04:09:23;;;;;;;24.13;14.38;;;;;;;9.20;54.46;98892.69;5113541;28;20397;-81
2023/05/05 04:11:49;;;;;;;20.58;13.35;;;;;;;9.21;54.67;98892.41;5113360;28;20059;-80
2023/05/05 04:14:14;;;;;;;19.30;12.80;;;;;;;9.21;55.03;98891.59;5113691;28;20064;-80
2023/05/05 04:16:39;;;;;;;22.35;13.20;;;;;;;9.23;54.17;98895.69;5011202;28;20038;-81
2023/05/05 04:19:05;;;;;;;18.15;12.40;;;;;;;9.24;55.07;98897.31;5010071;28;20030;-81
2023/05/05 04:21:30;;;;;;;20.58;13.65;;;;;;;9.25;54.80;98898.16;5010319;28;20468;-80
2023/05/05 04:23:57;;;;;;;21.02;12.88;;;;;;;9.26;54.42;98896.22;5010083;28;20022;-78
2023/05/05 04:26:22;;;;;;;18.30;11.98;;;;;;;9.28;54.84;98896.78;5009824;28;20053;-78
2023/05/05 04:28:48;;;;;;;20.83;12.90;;;;;;;9.31;54.83;98904.44;5010087;28;20476;-78
2023/05/05 04:31:13;;;;;;;18.48;11.90;;;;;;;9.34;54.99;98903.88;4992441;28;20435;-78
2023/05/05 04:33:38;;;;;;;19.50;12.35;;;;;;;9.35;54.38;98908.25;5009993;28;20040;-78
2023/05/05 04:36:04;;;;;;;19.40;11.88;;;;;;;9.37;55.00;98911.53;5097107;28;20059;-78
2023/05/05 04:38:30;;;;;;;20.38;12.27;;;;;;;9.41;55.44;98923.59;5113079;28;20047;-78
2023/05/05 04:40:55;;;;;;;20.98;12.63;;;;;;;9.44;55.30;98928.50;5112874;28;20470;-80
2023/05/05 04:43:21;;;;;;;19.88;11.63;;;;;;;9.47;55.66;98930.69;5112081;28;20055;-80
2023/05/05 04:45:53;;;;;;;19.13;12.40;;;;;;;9.50;55.32;98934.78;5112758;28;20027;-80
2023/05/05 04:48:19;;;;;;;19.60;12.32;;;;;;;9.50;55.58;98932.88;5113115;28;20030;-80
2023/05/05 04:50:45;;;;;;;20.63;12.45;;;;;;;9.55;55.87;98934.78;5112863;28;20047;-79
2023/05/05 04:53:11;;;;;;;18.90;11.52;;;;;;;9.56;55.40;98930.94;5113049;28;20373;-80
2023/05/05 04:55:37;;;;;;;18.73;11.43;;;;;;;9.58;55.86;98923.28;5112396;28;20111;-80
2023/05/05 04:58:02;;;;;;;18.65;12.20;;;;;;;9.60;55.64;98928.44;5112804;28;20055;-81
2023/05/05 05:00:28;;;;;;;20.48;11.95;;;;;;;9.61;55.18;98930.09;5112847;28;20047;-80
2023/05/05 05:02:53;;;;;;;17.48;10.63;;;;;;;9.61;55.69;98938.31;5112575;28;20489;-80
2023/05/05 05:05:20;;;;;;;17.02;10.88;;;;;;;9.63;55.30;98939.69;5112480;28;20413;-81
2023/05/05 05:07:46;;;;;;;20.83;10.73;;;;;;;9.64;56.08;98951.44;5112580;28;20019;-80
2023/05/05 05:10:11;;;;;;;15.93;10.50;;;;;;;9.66;56.27;98943.78;5112520;28;20069;-80
2023/05/05 05:12:36;;;;;;;20.98;11.93;;;;;;;9.68;55.72;98945.16;5112235;28;20363;-81
2023/05/05 05:15:02;;;;;;;19.92;11.45;;;;;;;9.70;55.53;98941.31;5112531;28;20019;-80
2023/05/05 05:17:29;;;;;;;23.67;12.63;;;;;;;9.72;56.38;98945.41;5094499;28;20478;-80
2023/05/05 05:19:55;;;;;;;19.65;11.85;;;;;;;9.75;55.86;98958.53;5112480;28;20024;-80
2023/05/05 05:22:21;;;;;;;19.48;11.55;;;;;;;9.79;56.39;98948.69;5112637;28;20465;-80
2023/05/05 05:24:46;;;;;;;22.65;12.60;;;;;;;9.81;56.53;98957.44;5112419;28;20023;-80
2023/05/05 05:27:12;;;;;;;22.33;12.43;;;;;;;9.86;55.35;98955.78;5112446;28;20087;-80
2023/05/05 05:29:37;;;;;;;22.17;12.80;;;;;;;9.88;56.36;98962.59;5112087;28;20035;-80
2023/05/05 05:32:02;;;;;;;20.52;11.65;;;;;;;9.91;56.54;98964.78;5112344;28;20031;-80
2023/05/05 05:34:28;;;;;;;19.40;12.00;;;;;;;9.97;56.66;98965.63;5112250;28;20035;-80
2023/05/05 05:36:53;;;;;;;17.15;11.38;;;;;;;10.03;56.19;98963.66;5112289;28;20380;-80
2023/05/05 05:39:18;;;;;;;17.17;11.18;;;;;;;10.08;56.41;98955.44;5112288;28;20115;-80
2023/05/05 05:41:44;;;;;;;18.58;11.65;;;;;;;10.14;56.66;98968.00;5112301;28;20027;-80
2023/05/05 05:44:09;;;;;;;18.45;11.18;;;;;;;10.22;56.11;98966.59;5112076;28;20032;-80
2023/05/05 05:46:35;;;;;;;18.55;10.68;;;;;;;10.27;56.63;98966.56;5112178;28;20042;-80
2023/05/05 05:49:00;;;;;;;16.30;11.05;;;;;;;10.33;56.31;98964.63;5112512;28;20429;-80
2023/05/05 05:51:26;;;;;;;16.77;10.15;;;;;;;10.38;56.44;98964.59;5112158;28;20020;-80
2023/05/05 05:53:52;;;;;;;17.20;10.85;;;;;;;10.42;56.41;98963.75;5112579;28;20542;-80
2023/05/05 05:56:17;;;;;;;16.65;9.88;;;;;;;10.50;56.46;98953.31;5116092;28;20023;-80
2023/05/05 05:58:44;;;;;;;13.57;8.68;;;;;;;10.58;56.89;98958.19;5115887;28;20024;-81
2023/05/05 06:01:09;;;;;;;15.48;9.13;;;;;;;10.63;56.64;98955.44;5069456;28;20026;-80
2023/05/05 06:03:35;;;;;;;13.95;8.75;;;;;;;10.69;56.00;98965.28;5012735;28;20665;-80
2023/05/05 06:06:00;;;;;;;12.95;8.35;;;;;;;10.77;56.91;98954.81;5013074;28;20033;-80
2023/05/05 06:08:26;;;;;;;13.02;8.23;;;;;;;10.84;56.65;98956.09;5013108;28;20611;-80
2023/05/05 06:10:51;;;;;;;14.13;8.43;;;;;;;10.93;56.86;98952.75;5013082;28;20528;-80
2023/05/05 06:13:20;;;;;;;13.50;9.07;;;;;;;11.01;56.39;98954.88;4995234;28;20165;-80
2023/05/05 06:15:46;;;;;;;13.40;9.20;;;;;;;11.10;56.13;98946.84;4995704;28;20054;-80
2023/05/05 06:18:12;;;;;;;14.20;8.50;;;;;;;11.18;56.62;98951.72;5012866;28;20034;-80
2023/05/05 06:20:37;;;;;;;11.65;7.80;;;;;;;11.25;56.50;98941.19;5013231;28;20061;-80
2023/05/05 06:23:02;;;;;;;11.43;8.05;;;;;;;11.32;56.16;98947.19;4995219;28;20388;-80
2023/05/05 06:25:28;;;;;;;11.38;7.60;;;;;;;11.41;56.38;98954.81;5012632;28;20030;-78
2023/05/05 06:27:53;;;;;;;11.80;8.35;;;;;;;11.50;55.91;98953.06;5012858;28;20118;-79
2023/05/05 06:30:19;;;;;;;15.82;9.02;;;;;;;11.57;56.65;98961.78;5012635;28;20034;-79
2023/05/05 06:32:44;;;;;;;14.40;9.30;;;;;;;11.67;56.35;98951.78;5012671;28;20034;-79
2023/05/05 06:35:10;;;;;;;13.93;7.47;;;;;;;11.75;55.78;98951.97;5012676;28;20026;-79
2023/05/05 06:37:35;;;;;;;11.75;8.30;;;;;;;11.82;56.35;98940.63;5011794;28;20030;-79
2023/05/05 06:40:00;;;;;;;14.23;7.97;;;;;;;11.90;55.69;98947.41;5012286;28;20041;-76
2023/05/05 06:42:26;;;;;;;13.07;8.45;;;;;;;11.98;56.16;98954.19;5012607;28;20060;-76
2023/05/05 06:44:51;;;;;;;13.10;7.43;;;;;;;12.07;55.57;98955.19;5009947;28;20033;-74
2023/05/05 06:47:17;;;;;;;10.25;7.65;;;;;;;12.15;56.08;98951.00;5009720;28;20030;-74
2023/05/05 06:49:42;;;;;;;12.73;7.65;;;;;;;12.22;55.97;98948.72;5010946;28;20127;-75
2023/05/05 06:52:07;;;;;;;14.15;8.82;;;;;;;12.30;55.77;98948.03;5010683;28;20080;-75
2023/05/05 06:54:33;;;;;;;13.05;7.78;;;;;;;12.39;55.48;98945.44;5010968;28;20026;-75
2023/05/05 06:56:58;;;;;;;9.50;6.93;;;;;;;12.48;55.38;98946.41;5013104;28;20041;-75
2023/05/05 06:59:25;;;;;;;13.23;7.43;;;;;;;12.58;55.45;98945.47;5011460;28;20022;-76
2023/05/05 07:01:50;;;;;;;12.50;7.63;;;;;;;12.68;55.65;98952.75;5009784;28;20508;-75
2023/05/05 07:04:16;;;;;;;10.32;7.10;;;;;;;12.78;55.23;98952.59;5016693;28;20067;-75
2023/05/05 07:06:41;;;;;;;11.55;7.10;;;;;;;12.87;55.22;98946.38;5009302;28;20372;-76
2023/05/05 07:09:06;;;;;;;9.50;6.35;;;;;;;12.96;54.73;98950.09;5010711;28;20029;-76
2023/05/05 07:11:32;;;;;;;10.45;6.15;;;;;;;13.03;54.72;98956.03;5009670;28;20061;-75
2023/05/05 07:13:57;;;;;;;9.93;6.22;;;;;;;13.10;54.65;98958.41;5011166;28;20433;-75
2023/05/05 07:16:24;;;;;;;9.90;6.20;;;;;;;13.18;54.49;98957.72;5009698;28;20041;-75
2023/05/05 07:18:49;;;;;;;8.70;5.68;;;;;;;13.25;54.42;98960.06;5010654;28;20038;-74
2023/05/05 07:21:15;;;;;;;9.27;6.13;;;;;;;13.30;54.44;98953.69;5011096;28;20026;-72
2023/05/05 07:23:40;;;;;;;9.15;6.05;;;;;;;13.35;54.27;98957.16;4993068;28;20037;-75
2023/05/05 07:26:06;;;;;;;9.90;6.30;;;;;;;13.40;53.86;98954.31;5010635;28;20030;-75
2023/05/05 07:28:31;;;;;;;8.88;6.35;;;;;;;13.47;53.95;98948.44;5008363;28;20128;-74
2023/05/05 07:30:57;;;;;;;10.25;5.80;;;;;;;13.57;53.96;98955.72;5011853;28;20747;-76
2023/05/05 07:33:22;;;;;;;9.45;5.70;;;;;;;13.63;53.82;98951.75;5009425;28;20030;-76
2023/05/05 07:35:47;;;;;;;7.70;5.63;;;;;;;13.69;53.65;98957.97;5009902;28;20105;-75
2023/05/05 07:38:15;;;;;;;7.18;5.38;;;;;;;13.75;53.59;98955.91;5009763;28;20364;-73
2023/05/05 07:40:41;;;;;;;6.95;4.90;;;;;;;13.82;53.43;98943.38;4975741;28;20067;-74
2023/05/05 07:43:06;;;;;;;8.40;6.25;;;;;;;13.89;52.75;98950.41;4991458;28;20120;-73
2023/05/05 07:45:32;;;;;;;8.65;5.32;;;;;;;13.95;52.85;98939.00;5009656;28;20030;-74
2023/05/05 07:47:57;;;;;;;7.32;5.07;;;;;;;14.02;52.86;98930.28;4991791;28;20061;-74
2023/05/05 07:50:23;;;;;;;9.57;5.65;;;;;;;14.07;52.41;98938.47;5010071;28;20033;-74
2023/05/05 07:52:49;;;;;;;7.68;5.30;;;;;;;14.12;52.15;98941.13;5010106;28;20109;-74
2023/05/05 07:55:14;;;;;;;9.52;5.53;;;;;;;14.19;51.81;98940.69;5002824;28;20424;-77
2023/05/05 07:57:40;;;;;;;9.55;6.00;;;;;;;14.23;51.95;98944.47;5009710;28;20091;-73
2023/05/05 08:00:06;;;;;;;10.30;5.60;;;;;;;14.32;51.99;98936.28;5033412;28;20037;-73
2023/05/05 08:02:31;;;;;;;9.57;5.60;;;;;;;14.40;52.08;98932.78;5011255;28;20026;-74
2023/05/05 08:04:57;;;;;;;9.05;5.18;;;;;;;14.50;51.40;98937.25;5012722;28;20042;-73
2023/05/05 08:07:22;;;;;;;9.40;5.50;;;;;;;14.56;51.87;98933.25;5012704;28;20030;-72
2023/05/05 08:09:47;;;;;;;8.13;5.40;;;;;;;14.66;51.64;98932.22;5016577;28;20038;-74
2023/05/05 08:12:14;;;;;;;8.05;5.47;;;;;;;14.73;51.90;98924.31;5009045;28;20485;-73
2023/05/05 08:14:41;;;;;;;8.95;5.38;;;;;;;14.84;51.62;98935.13;5015920;28;20038;-73
2023/05/05 08:17:07;;;;;;;9.85;5.28;;;;;;;14.94;51.37;98926.59;5013004;28;20052;-72
2023/05/05 08:19:32;;;;;;;7.40;4.72;;;;;;;15.02;51.12;98928.63;5008628;28;20022;-72
2023/05/05 08:21:57;;;;;;;8.07;5.13;;;;;;;15.13;51.14;98929.19;5008933;28;20049;-72
2023/05/05 08:24:23;;;;;;;6.93;4.82;;;;;;;15.24;51.06;98924.19;5008790;28;20102;-74
2023/05/05 08:26:48;;;;;;;7.32;4.80;;;;;;;15.34;51.44;98925.88;5009007;28;20026;-73
2023/05/05 08:29:13;;;;;;;8.90;4.50;;;;;;;15.44;50.78;98922.03;5008750;28;20472;-74
2023/05/05 08:31:39;;;;;;;7.95;4.57;;;;;;;15.52;50.29;98917.69;5016657;28;20479;-75
2023/05/05 08:34:05;;;;;;;6.30;4.53;;;;;;;15.59;50.09;98921.59;5007719;28;20036;-75
2023/05/05 08:36:31;;;;;;;6.40;4.18;;;;;;;15.69;50.36;98916.94;5009109;28;20053;-75
2023/05/05 08:38:57;;;;;;;9.82;4.80;;;;;;;15.77;49.76;98924.47;5009537;28;20034;-75
2023/05/05 08:41:22;;;;;;;6.70;4.47;;;;;;;15.86;50.02;98917.03;5010476;28;20026;-75
2023/05/05 08:43:49;;;;;;;7.30;4.50;;;;;;;15.95;49.91;98916.25;5010031;28;20053;-75
2023/05/05 08:46:15;;;;;;;7.28;4.72;;;;;;;16.02;49.54;98919.34;5010366;28;20040;-75
2023/05/05 08:48:43;;;;;;;6.72;4.75;;;;;;;16.12;49.46;98919.06;5008797;28;20076;-73
2023/05/05 08:51:12;;;;;;;8.82;4.70;;;;;;;16.22;49.43;98918.75;5008436;28;20041;-74
2023/05/05 08:53:53;;;;;;;7.97;4.80;;;;;;;16.33;49.17;98912.91;5014955;28;20029;-75
2023/05/05 08:56:20;;;;;;;6.82;5.00;;;;;;;16.42;48.92;98904.63;5008596;28;20033;-74
2023/05/05 08:58:47;;;;;;;6.93;4.68;;;;;;;16.51;48.52;98902.66;5008737;28;20026;-74
2023/05/05 09:01:13;;;;;;;7.85;4.43;;;;;;;16.59;49.05;98912.91;5008577;28;20371;-75
2023/05/05 09:03:39;;;;;;;5.72;4.25;;;;;;;16.66;48.67;98904.94;5009104;28;20463;-75
2023/05/05 09:06:05;;;;;;;8.63;4.90;;;;;;;16.74;48.59;98899.75;5013507;28;20112;-75
2023/05/05 09:08:32;;;;;;;6.78;4.30;;;;;;;16.82;48.54;98899.72;5006788;28;20026;-75
2023/05/05 09:10:59;;;;;;;6.15;4.38;;;;;;;16.92;48.37;98901.34;5008180;28;20511;-76
2023/05/05 09:13:24;;;;;;;7.35;4.22;;;;;;;17.01;48.38;98898.59;5008450;28;20045;-75
2023/05/05 09:15:49;;;;;;;6.47;4.38;;;;;;;17.03;47.85;98901.03;4989552;28;20034;-73
2023/05/05 09:18:15;;;;;;;5.90;4.45;;;;;;;17.08;47.60;98900.88;5006120;28;20194;-72
2023/05/05 09:20:40;;;;;;;9.00;4.50;;;;;;;17.08;46.93;98903.63;5006466;28;20030;-73
2023/05/05 09:23:16;;;;;;;7.03;4.10;;;;;;;17.12;47.01;98910.16;5007109;28;20072;-76
2023/05/05 09:25:44;;;;;;;8.25;4.40;;;;;;;17.20;47.05;98902.94;5006833;28;20026;-76
2023/05/05 09:28:16;;;;;;;5.60;4.50;;;;;;;17.28;47.19;98912.41;5005669;28;20045;-75
2023/05/05 09:30:44;;;;;;;7.15;4.68;;;;;;;17.34;46.49;98906.34;5008689;28;20679;-76
2023/05/05 09:33:11;;;;;;;6.80;4.85;;;;;;;17.41;46.11;98917.75;5009139;28;20030;-76
2023/05/05 09:35:53;;;;;;;7.72;4.57;;;;;;;17.47;46.32;98910.06;5011303;28;20395;-76
2023/05/05 09:38:20;;;;;;;6.45;4.57;;;;;;;17.55;45.95;98912.00;5011979;28;20589;-76
2023/05/05 09:40:50;;;;;;;6.25;4.10;;;;;;;17.62;46.24;98902.34;5009116;28;20472;-76
2023/05/05 09:43:18;;;;;;;6.15;4.07;;;;;;;17.68;45.31;98914.88;5010238;28;20034;-76
2023/05/05 09:45:44;;;;;;;6.25;4.57;;;;;;;17.73;45.40;98911.09;5006498;28;20475;-76
2023/05/05 09:48:27;;;;;;;4.38;3.85;;;;;;;17.80;45.52;98909.44;5009858;28;20041;-75
2023/05/05 09:50:54;;;;;;;11.43;4.13;;;;;;;17.86;44.33;98912.84;5010577;28;20113;-75
2023/05/05 09:53:19;;;;;;;5.38;3.42;;;;;;;17.87;44.32;98911.69;5011090;28;20036;-76
2023/05/05 09:56:11;;;;;;;8.15;4.68;;;;;;;17.91;44.65;98918.22;5011682;28;20383;-75
2023/05/05 09:58:36;;;;;;;7.82;4.53;;;;;;;17.99;44.32;98913.78;5007421;28;20534;-76
2023/05/05 10:01:02;;;;;;;7.75;3.35;;;;;;;18.07;44.49;98920.44;5012266;28;20018;-76
2023/05/05 10:03:27;;;;;;;6.32;3.58;;;;;;;18.15;44.00;98914.00;5010599;28;20417;-76
2023/05/05 10:05:57;;;;;;;4.38;3.35;;;;;;;18.20;43.77;98904.66;5011528;28;20045;-75
2023/05/05 10:08:27;;;;;;;6.38;3.78;;;;;;;18.26;43.47;98908.88;5022084;28;20030;-76
2023/05/05 10:10:53;;;;;;;5.25;3.50;;;;;;;18.35;43.82;98912.41;5011536;28;20022;-77
2023/05/05 10:13:20;;;;;;;3.95;2.88;;;;;;;18.41;43.62;98899.13;5022677;28;20117;-77
2023/05/05 10:15:48;;;;;;;3.30;2.55;;;;;;;18.47;43.20;98906.13;5010901;28;20033;-77
2023/05/05 10:18:17;;;;;;;4.15;2.50;;;;;;;18.49;42.55;98903.03;5022003;28;20392;-77
2023/05/05 10:20:44;;;;;;;2.38;2.17;;;;;;;18.50;42.09;98890.75;4993763;28;20022;-75
2023/05/05 10:23:15;;;;;;;5.20;2.50;;;;;;;18.53;41.96;98898.41;5022743;28;20044;-76
2023/05/05 10:25:49;;;;;;;2.97;2.10;;;;;;;18.55;42.00;98887.75;4993874;28;20496;-76
2023/05/05 10:28:22;;;;;;;4.05;2.50;;;;;;;18.60;41.76;98887.56;5011327;28;20484;-76
2023/05/05 10:30:51;;;;;;;5.65;2.80;;;;;;;18.66;41.63;98888.19;5011226;28;20361;-76
2023/05/05 10:33:29;;;;;;;4.93;2.70;;;;;;;18.70;41.44;98878.00;5011861;28;20034;-76
2023/05/05 10:35:59;;;;;;;6.40;2.55;;;;;;;18.75;41.32;98880.56;5011352;28;20419;-75
2023/05/05 10:38:29;;;;;;;6.15;2.33;;;;;;;18.79;41.44;98881.50;5011439;28;20463;-74
2023/05/05 10:40:55;;;;;;;;;;;;;;;18.89;41.60;98885.84;5010245;28;20057;-76
2023/05/05 10:43:20;;;;;;;3.47;2.35;;;;;;;18.95;41.62;98884.44;4993949;28;19917;-75
2023/05/05 10:45:46;;;;;;;3.63;2.50;;;;;;;19.02;41.38;98884.75;5011051;28;20018;-75
2023/05/05 10:48:21;;;;;;;5.40;2.65;;;;;;;19.06;40.83;98875.72;5011413;28;20078;-75
2023/05/05 10:50:52;;;;;;;3.63;2.40;;;;;;;19.09;40.80;98877.81;5011028;28;20022;-76
2023/05/05 10:53:35;;;;;;;3.60;2.28;;;;;;;19.12;40.54;98875.19;5011492;28;20036;-76
2023/05/05 10:56:09;;;;;;;3.25;2.17;;;;;;;19.19;40.68;98883.75;5011502;28;20022;-75
2023/05/05 10:58:40;;;;;;;3.67;2.10;;;;;;;19.26;40.09;98874.03;5009355;28;20053;-76
2023/05/05 11:01:06;;;;;;;3.63;2.13;;;;;;;19.28;40.05;98872.56;5011362;28;20034;-75
2023/05/05 11:03:32;;;;;;;2.90;2.33;;;;;;;19.29;39.76;98868.63;5010567;28;20406;-77
2023/05/05 11:06:06;;;;;;;4.85;2.03;;;;;;;19.32;39.49;98867.94;5010647;28;20087;-77
2023/05/05 11:08:39;;;;;;;5.57;2.13;;;;;;;19.38;39.56;98867.69;5007423;28;20037;-77
2023/05/05 11:11:05;;;;;;;3.28;2.05;;;;;;;19.46;39.92;98867.59;4993412;28;20057;-76
2023/05/05 11:13:33;;;;;;;4.03;2.20;;;;;;;19.53;39.33;98867.00;5009646;28;20456;-77
2023/05/05 11:15:59;;;;;;;2.92;2.10;;;;;;;19.54;38.71;98871.41;5010694;28;20018;-77
2023/05/05 11:18:35;;;;;;;4.65;1.60;;;;;;;19.56;38.58;98860.75;5011441;28;20026;-77
2023/05/05 11:21:00;;;;;;;2.67;1.98;;;;;;;19.59;38.42;98860.06;5010291;28;20403;-77
2023/05/05 11:23:26;;;;;;;4.30;1.88;;;;;;;19.63;38.33;98860.16;5011359;28;20038;-77
2023/05/05 11:25:53;;;;;;;2.05;1.85;;;;;;;19.65;37.77;98857.84;5010173;28;20034;-77
2023/05/05 11:28:20;;;;;;;2.78;1.50;;;;;;;19.69;37.86;98857.97;5010807;28;20038;-77
2023/05/05 11:31:15;;;;;;;2.60;1.98;;;;;;;19.74;37.96;98860.53;5010340;28;20062;-77
2023/05/05 11:33:40;;;;;;;4.50;2.28;;;;;;;19.78;37.60;98851.13;5007130;28;20038;-77